Glorious — TCRZ6 — position and weather

sailwx.info

Track history (hours):
 
Tides and Currents Weather Stations Pressure Air Temp Water Temp Dewpoint Dewpoint Depression Visibility Wind Speed Wind Dir Waves Ship Positions

Glorious

Last reported at 2017-Aug-21 23:55 UTC. Time now 2017-Sep-24 15:54 UTC.
Position N 37°10' E 025°48'.
Warning: this ship's position is 33 days out of date.

Length 31 m.

Type: Pleasure craft. MMSI: 271042918.

Date/timePositionNaut miles runAvg speedWind from/ knotsBaromVisibWave heightAir tempDewpointWater temp
2017-Aug-21 23:55N 37°10' E 025°48'4 9.9
2017-Aug-21 23:30N 37°11' E 025°43'11 9.8
2017-Aug-21 22:23N 37°13' E 025°29'4 9.1
2017-Aug-21 22:00N 37°13' E 025°25'4 8.5
2017-Aug-21 21:30N 37°13' E 025°20'5 8.7
2017-Aug-21 20:59N 37°13' E 025°14'8 9.0
2017-Aug-21 20:09N 37°13' E 025°04'1 8.8
2017-Aug-21 20:01N 37°13' E 025°03'4 8.6
2017-Aug-21 19:31N 37°13' E 024°58'4 8.7
2017-Aug-21 19:00N 37°14' E 024°52'61 8.7
2017-Aug-21 11:55N 37°40' E 023°43'3 6.4
2017-Aug-21 11:29N 37°43' E 023°40'4 9.2
2017-Aug-21 11:00N 37°45' E 023°36'5 9.5
2017-Aug-21 10:29N 37°48' E 023°31'5 9.6
2017-Aug-21 09:59N 37°49' E 023°25'  
Track history (hours):
 
Tides and Currents Weather Stations Pressure Air Temp Water Temp Dewpoint Dewpoint Depression Visibility Wind Speed Wind Dir Waves Ship Positions

Glorious

Last reported at 2017-Aug-21 23:55 UTC. Time now 2017-Sep-24 15:54 UTC.
Position N 37°10' E 025°48'.
Warning: this ship's position is 33 days out of date.

Length 31 m.

Type: Pleasure craft. MMSI: 271042918.

Date/timePositionNaut miles runAvg speedWind from/ knotsBaromVisibWave heightAir tempDewpointWater temp
2017-Aug-21 23:55N 37°10' E 025°48'4 9.9
2017-Aug-21 23:30N 37°11' E 025°43'11 9.8
2017-Aug-21 22:23N 37°13' E 025°29'4 9.1
2017-Aug-21 22:00N 37°13' E 025°25'4 8.5
2017-Aug-21 21:30N 37°13' E 025°20'5 8.7
2017-Aug-21 20:59N 37°13' E 025°14'8 9.0
2017-Aug-21 20:09N 37°13' E 025°04'1 8.8
2017-Aug-21 20:01N 37°13' E 025°03'4 8.6
2017-Aug-21 19:31N 37°13' E 024°58'4 8.7
2017-Aug-21 19:00N 37°14' E 024°52'61 8.7
2017-Aug-21 11:55N 37°40' E 023°43'3 6.4
2017-Aug-21 11:29N 37°43' E 023°40'4 9.2
2017-Aug-21 11:00N 37°45' E 023°36'5 9.5
2017-Aug-21 10:29N 37°48' E 023°31'5 9.6
2017-Aug-21 09:59N 37°49' E 023°25'  

Dump ship's entire track history